createdAt,value
2022-09-10T00:01:33.479Z,15.50
2022-09-10T00:04:03.508Z,15.00
2022-09-10T00:06:35.429Z,14.00
2022-09-10T00:09:03.371Z,15.00
2022-09-10T00:11:35.276Z,15.60
2022-09-10T00:14:04.575Z,14.00
2022-09-10T00:16:33.204Z,13.10
2022-09-10T00:19:02.315Z,13.30
2022-09-10T00:21:31.071Z,14.50
2022-09-10T00:23:59.670Z,12.90
2022-09-10T00:26:31.318Z,15.40
2022-09-10T00:29:00.811Z,14.10
2022-09-10T00:31:30.647Z,13.30
2022-09-10T00:34:00.628Z,13.90
2022-09-10T00:36:32.795Z,13.20
2022-09-10T00:39:03.602Z,13.10
2022-09-10T00:41:32.326Z,13.10
2022-09-10T00:44:05.616Z,13.30
2022-09-10T00:46:42.706Z,14.40
2022-09-10T00:49:16.656Z,13.90
2022-09-10T00:51:47.298Z,14.00
2022-09-10T00:54:18.285Z,15.30
2022-09-10T00:59:21.212Z,15.00
2022-09-10T01:01:50.235Z,15.50
2022-09-10T01:04:18.403Z,15.00
2022-09-10T01:06:51.735Z,13.70
2022-09-10T01:09:21.992Z,15.50
2022-09-10T01:12:10.426Z,15.50
2022-09-10T01:15:09.273Z,14.30
2022-09-10T01:17:56.231Z,14.00
2022-09-10T01:20:58.140Z,13.50
2022-09-10T01:24:00.204Z,13.40
2022-09-10T01:27:16.871Z,14.40
2022-09-10T01:29:54.976Z,14.30
2022-09-10T01:32:28.256Z,14.20
2022-09-10T01:35:05.755Z,13.60
2022-09-10T01:37:38.982Z,13.70
2022-09-10T01:40:10.176Z,14.40
2022-09-10T01:42:40.335Z,14.20
2022-09-10T01:45:15.234Z,14.00
2022-09-10T01:48:10.694Z,15.50
2022-09-10T01:50:52.562Z,13.90
2022-09-10T01:53:51.029Z,15.20
2022-09-10T01:56:35.651Z,13.90
2022-09-10T01:59:14.413Z,13.40
2022-09-10T02:01:51.532Z,14.20
2022-09-10T02:04:23.107Z,13.30
2022-09-10T02:06:52.594Z,13.80
2022-09-10T02:11:52.593Z,14.60
2022-09-10T02:14:58.579Z,14.30
2022-09-10T02:17:39.752Z,13.70
2022-09-10T02:20:13.685Z,15.30
2022-09-10T02:22:49.170Z,13.20
2022-09-10T02:25:20.052Z,14.60
2022-09-10T02:27:48.985Z,13.20
2022-09-10T02:32:47.977Z,13.50
2022-09-10T02:35:16.177Z,15.20
2022-09-10T02:37:47.917Z,13.60
2022-09-10T02:40:17.661Z,15.70
2022-09-10T02:42:46.613Z,15.70
2022-09-10T02:45:18.181Z,14.20
2022-09-10T02:47:47.597Z,13.80
2022-09-10T02:50:17.516Z,14.40
2022-09-10T02:52:46.622Z,13.70
2022-09-10T02:55:15.225Z,14.30
2022-09-10T02:57:44.464Z,13.90
2022-09-10T03:00:13.615Z,13.50
2022-09-10T03:02:41.747Z,15.20
2022-09-10T03:05:11.470Z,13.60
2022-09-10T03:10:09.155Z,13.40
2022-09-10T03:12:37.534Z,15.70
2022-09-10T03:15:07.024Z,13.90
2022-09-10T03:17:35.174Z,15.00
2022-09-10T03:20:06.136Z,13.50
2022-09-10T03:22:35.747Z,15.20
2022-09-10T03:25:04.806Z,13.40
2022-09-10T03:27:33.141Z,15.50
2022-09-10T03:30:03.052Z,13.30
2022-09-10T03:32:33.379Z,13.40
2022-09-10T03:35:01.525Z,13.00
2022-09-10T03:37:31.320Z,14.80
2022-09-10T03:40:00.908Z,14.30
2022-09-10T03:42:29.074Z,13.70
2022-09-10T03:44:57.173Z,13.90
2022-09-10T03:47:25.429Z,12.70
2022-09-10T03:54:54.622Z,13.90
2022-09-10T03:57:25.411Z,12.30
2022-09-10T03:59:53.957Z,12.50
2022-09-10T04:02:22.113Z,14.40
2022-09-10T04:04:50.925Z,14.60
2022-09-10T04:07:19.026Z,14.50
2022-09-10T04:09:47.099Z,13.00
2022-09-10T04:12:15.383Z,14.10
2022-09-10T04:14:45.384Z,12.60
2022-09-10T04:17:14.825Z,12.10
2022-09-10T04:22:12.694Z,11.60
2022-09-10T04:24:42.229Z,11.70
2022-09-10T04:27:10.560Z,12.20
2022-09-10T04:29:38.945Z,13.40
2022-09-10T04:32:08.417Z,13.10
2022-09-10T04:34:36.631Z,14.30
2022-09-10T04:37:05.189Z,14.20
2022-09-10T04:39:35.051Z,14.30
2022-09-10T04:42:03.256Z,13.70
2022-09-10T04:44:31.813Z,12.60
2022-09-10T04:47:00.277Z,14.60
2022-09-10T04:49:29.732Z,12.90
2022-09-10T04:51:58.099Z,13.70
2022-09-10T04:54:27.126Z,13.10
2022-09-10T04:56:55.427Z,14.50
2022-09-10T04:59:24.273Z,15.00
2022-09-10T05:04:21.008Z,12.90
2022-09-10T05:06:51.186Z,12.40
2022-09-10T05:09:20.002Z,13.10
2022-09-10T05:11:49.764Z,13.90
2022-09-10T05:14:19.503Z,13.10
2022-09-10T05:19:18.592Z,12.80
2022-09-10T05:21:56.116Z,13.60
2022-09-10T05:24:24.345Z,14.60
2022-09-10T05:29:22.231Z,14.10
2022-09-10T05:31:50.850Z,13.20
2022-09-10T05:34:20.409Z,13.00
2022-09-10T05:36:57.544Z,13.80
2022-09-10T05:39:25.770Z,13.30
2022-09-10T05:41:55.463Z,15.40
2022-09-10T05:44:24.799Z,15.20
2022-09-10T05:49:22.424Z,14.30
2022-09-10T05:51:51.123Z,13.70
2022-09-10T05:54:20.919Z,15.10
2022-09-10T05:56:49.216Z,14.30
2022-09-10T05:59:17.559Z,14.10
2022-09-10T06:01:51.675Z,14.00
2022-09-10T06:04:21.976Z,15.90
2022-09-10T06:06:50.430Z,15.40
2022-09-10T06:09:20.214Z,13.80
2022-09-10T06:11:54.665Z,15.30
2022-09-10T06:14:24.759Z,13.90
2022-09-10T06:16:55.191Z,15.70
2022-09-10T06:19:24.848Z,14.20
2022-09-10T06:21:53.272Z,15.60
2022-09-10T06:24:24.372Z,16.00
2022-09-10T06:26:55.857Z,14.70
2022-09-10T06:29:26.884Z,15.00
2022-09-10T06:31:56.228Z,15.00
2022-09-10T06:34:25.910Z,15.50
2022-09-10T06:36:55.243Z,15.30
2022-09-10T06:39:25.460Z,16.00
2022-09-10T06:41:58.131Z,15.30
2022-09-10T06:50:38.025Z,16.00
2022-09-10T06:55:37.812Z,16.50
2022-09-10T06:58:06.621Z,16.50
2022-09-10T07:00:39.788Z,16.00
2022-09-10T07:03:08.873Z,16.50
2022-09-10T07:05:37.052Z,17.00
2022-09-10T07:08:06.258Z,16.60
2022-09-10T07:10:37.328Z,17.60
2022-09-10T07:13:08.897Z,17.30
2022-09-10T07:15:37.347Z,17.80
2022-09-10T07:18:05.807Z,16.70
2022-09-10T07:20:37.633Z,16.90
2022-09-10T07:25:41.794Z,17.40
2022-09-10T07:28:19.360Z,15.90
2022-09-10T07:30:49.038Z,15.90
2022-09-10T07:35:47.187Z,16.10
2022-09-10T07:38:17.220Z,16.00
2022-09-10T07:43:18.751Z,15.10
2022-09-10T07:45:47.000Z,15.60
2022-09-10T07:48:15.207Z,15.50
2022-09-10T07:50:43.426Z,14.60
2022-09-10T07:53:11.641Z,16.00
2022-09-10T07:55:40.187Z,15.10
2022-09-10T07:58:08.678Z,14.80
2022-09-10T08:00:40.776Z,14.90
2022-09-10T08:03:12.596Z,15.50
2022-09-10T08:05:41.214Z,15.10
2022-09-10T08:08:10.481Z,15.40
2022-09-10T08:10:38.700Z,16.30
2022-09-10T08:13:07.306Z,14.90
2022-09-10T08:15:36.242Z,15.10
2022-09-10T08:18:06.381Z,15.00
2022-09-10T08:23:03.556Z,17.10
2022-09-10T08:25:33.334Z,16.40
2022-09-10T08:28:01.870Z,17.30
2022-09-10T08:30:32.195Z,16.30
2022-09-10T08:35:31.034Z,16.40
2022-09-10T08:40:27.694Z,17.80
2022-09-10T08:42:58.608Z,18.30
2022-09-10T08:45:32.940Z,17.50
2022-09-10T08:48:09.035Z,18.20
2022-09-10T08:50:47.869Z,17.60
2022-09-10T08:53:27.071Z,17.40
2022-09-10T08:56:03.041Z,18.40
2022-09-10T08:58:43.368Z,17.30
2022-09-10T09:01:22.591Z,17.80
2022-09-10T09:03:55.808Z,17.60
2022-09-10T09:06:33.444Z,17.30
2022-09-10T09:09:04.402Z,17.40
2022-09-10T09:11:48.037Z,17.90
2022-09-10T09:14:33.919Z,17.50
2022-09-10T09:17:24.895Z,17.80
2022-09-10T09:20:05.194Z,17.30
2022-09-10T09:22:51.897Z,17.80
2022-09-10T09:25:28.354Z,17.40
2022-09-10T09:27:58.459Z,18.20
2022-09-10T09:30:37.190Z,18.30
2022-09-10T09:33:17.026Z,18.50
2022-09-10T09:35:52.754Z,19.30
2022-09-10T09:38:26.671Z,20.70
2022-09-10T09:41:05.025Z,18.90
2022-09-10T09:43:49.492Z,19.10
2022-09-10T09:46:21.905Z,19.90
2022-09-10T09:48:57.235Z,19.70
2022-09-10T09:51:28.894Z,20.20
2022-09-10T09:54:39.358Z,19.70
2022-09-10T09:56:56.396Z,19.40
2022-09-10T09:59:29.119Z,19.80
2022-09-10T10:02:05.136Z,21.00
2022-09-10T10:04:36.201Z,19.30
2022-09-10T10:07:07.209Z,19.90
2022-09-10T10:09:42.793Z,20.50
2022-09-10T10:12:20.739Z,21.00
2022-09-10T10:14:49.825Z,20.20
2022-09-10T10:17:32.237Z,20.40
2022-09-10T10:20:08.916Z,21.00
2022-09-10T10:22:38.871Z,20.80
2022-09-10T10:25:38.258Z,20.40
2022-09-10T10:28:20.249Z,20.00
2022-09-10T10:30:54.085Z,20.20
2022-09-10T10:33:28.277Z,20.90
2022-09-10T10:36:07.202Z,21.20
2022-09-10T10:38:39.456Z,21.20
2022-09-10T10:41:52.423Z,21.00
2022-09-10T10:44:38.411Z,21.50
2022-09-10T10:47:29.134Z,21.90
2022-09-10T10:50:12.656Z,21.40
2022-09-10T10:52:52.226Z,23.50
2022-09-10T10:55:24.358Z,22.80
2022-09-10T10:58:16.774Z,23.40
2022-09-10T11:00:51.486Z,22.30
2022-09-10T11:03:30.105Z,21.80
2022-09-10T11:06:04.931Z,22.20
2022-09-10T11:08:38.564Z,24.10
2022-09-10T11:11:15.315Z,24.10
2022-09-10T11:13:52.108Z,25.20
2022-09-10T11:16:24.767Z,25.40
2022-09-10T11:18:58.850Z,26.40
2022-09-10T11:21:32.997Z,28.10
2022-09-10T11:24:07.097Z,29.30
2022-09-10T11:26:39.894Z,27.50
2022-09-10T11:29:28.359Z,25.50
2022-09-10T11:32:07.180Z,24.40
2022-09-10T11:34:43.416Z,24.90
2022-09-10T11:37:19.312Z,23.60
2022-09-10T11:39:52.454Z,23.00
2022-09-10T11:42:25.861Z,22.20
2022-09-10T11:45:03.663Z,21.70
2022-09-10T11:47:37.722Z,20.70
2022-09-10T11:50:17.642Z,20.10
2022-09-10T11:52:46.309Z,19.10
2022-09-10T11:55:17.657Z,18.30
2022-09-10T11:58:04.580Z,18.30
2022-09-10T12:00:41.997Z,17.60
2022-09-10T12:03:37.885Z,17.40
2022-09-10T12:06:11.587Z,17.90
2022-09-10T12:09:02.389Z,17.20
2022-09-10T12:11:40.775Z,17.40
2022-09-10T12:14:16.293Z,17.10
2022-09-10T12:16:51.250Z,17.20
2022-09-10T12:19:27.407Z,17.60
2022-09-10T12:22:01.196Z,17.00
2022-09-10T12:24:32.568Z,17.60
2022-09-10T12:27:02.885Z,17.60
2022-09-10T12:29:35.149Z,17.50
2022-09-10T12:32:30.894Z,17.10
2022-09-10T12:35:48.775Z,17.00
2022-09-10T12:38:55.221Z,18.70
2022-09-10T12:42:02.084Z,17.00
2022-09-10T12:44:55.081Z,18.20
2022-09-10T12:47:50.286Z,17.80
2022-09-10T12:50:40.315Z,17.20
2022-09-10T12:53:55.400Z,18.10
2022-09-10T12:56:50.876Z,18.40
2022-09-10T12:59:46.884Z,17.90
2022-09-10T13:02:28.515Z,19.90
2022-09-10T13:05:03.121Z,18.30
2022-09-10T13:07:41.685Z,19.20
2022-09-10T13:10:22.197Z,19.10
2022-09-10T13:12:55.174Z,19.30
2022-09-10T13:15:27.544Z,19.20
2022-09-10T13:18:26.298Z,19.70
2022-09-10T13:20:56.231Z,19.30
2022-09-10T13:23:44.048Z,18.90
2022-09-10T13:26:49.918Z,18.60
2022-09-10T13:29:33.269Z,18.20
2022-09-10T13:32:08.149Z,18.80
2022-09-10T13:35:21.570Z,18.10
2022-09-10T13:38:16.465Z,17.40
2022-09-10T13:41:22.813Z,17.90
2022-09-10T13:44:21.160Z,17.90
2022-09-10T13:46:55.033Z,18.30
2022-09-10T13:49:33.368Z,17.70
2022-09-10T13:52:05.711Z,18.10
2022-09-10T13:54:38.326Z,17.70
2022-09-10T13:57:15.824Z,18.60
2022-09-10T13:59:47.972Z,18.80
2022-09-10T14:02:19.600Z,17.60
2022-09-10T14:04:48.685Z,17.50
2022-09-10T14:07:22.524Z,17.40
2022-09-10T14:09:56.759Z,17.40
2022-09-10T14:12:31.096Z,17.90
2022-09-10T14:15:03.669Z,18.00
2022-09-10T14:17:38.828Z,18.00
2022-09-10T14:20:19.277Z,17.60
2022-09-10T14:22:47.939Z,18.60
2022-09-10T14:25:32.347Z,18.10
2022-09-10T14:28:26.335Z,18.30
2022-09-10T14:31:29.892Z,17.80
2022-09-10T14:33:59.436Z,17.70
2022-09-10T14:36:35.443Z,17.90
2022-09-10T14:39:07.423Z,18.70
2022-09-10T14:41:37.739Z,17.80
2022-09-10T14:44:30.448Z,19.40
2022-09-10T14:47:00.751Z,18.60
2022-09-10T14:49:31.707Z,18.80
2022-09-10T14:52:01.758Z,21.80
2022-09-10T14:54:32.128Z,18.20
2022-09-10T14:57:04.918Z,18.20
2022-09-10T14:59:36.152Z,18.30
2022-09-10T15:02:15.747Z,18.30
2022-09-10T15:04:44.084Z,17.80
2022-09-10T15:07:13.157Z,17.50
2022-09-10T15:09:41.956Z,18.50
2022-09-10T15:12:25.896Z,18.40
2022-09-10T15:19:52.168Z,20.00
2022-09-10T15:22:24.851Z,20.50
2022-09-10T15:25:09.185Z,20.20
2022-09-10T15:27:39.919Z,20.70
2022-09-10T15:30:09.311Z,20.40
2022-09-10T15:32:37.410Z,20.50
2022-09-10T15:35:06.786Z,20.20
2022-09-10T15:40:04.464Z,20.90
2022-09-10T15:42:32.995Z,20.00
2022-09-10T15:45:02.519Z,19.60
2022-09-10T15:47:33.443Z,19.50
2022-09-10T15:50:01.525Z,19.40
2022-09-10T15:52:29.804Z,20.20
2022-09-10T15:54:57.884Z,18.90
2022-09-10T15:57:26.109Z,18.70
2022-09-10T15:59:54.470Z,19.00
2022-09-10T16:02:24.218Z,18.70
2022-09-10T16:04:53.132Z,18.70
2022-09-10T16:07:21.266Z,18.40
2022-09-10T16:09:49.402Z,18.40
2022-09-10T16:12:17.922Z,19.00
2022-09-10T16:14:46.654Z,18.00
2022-09-10T16:17:17.317Z,18.00
2022-09-10T16:19:46.859Z,17.80
2022-09-10T16:22:18.753Z,17.90
2022-09-10T16:24:48.750Z,17.20
2022-09-10T16:27:17.493Z,16.80
2022-09-10T16:29:48.476Z,16.70
2022-09-10T16:32:16.580Z,17.10
2022-09-10T16:34:45.997Z,16.60
2022-09-10T16:39:42.692Z,16.30
2022-09-10T16:42:10.982Z,16.10
2022-09-10T16:44:39.158Z,16.60
2022-09-10T16:49:36.680Z,16.80
2022-09-10T16:52:06.283Z,16.30
2022-09-10T16:54:34.395Z,16.10
2022-09-10T16:59:31.087Z,16.70
2022-09-10T17:02:00.623Z,15.80
2022-09-10T17:04:29.403Z,16.10
2022-09-10T17:06:58.484Z,15.80
2022-09-10T17:09:28.301Z,16.90
2022-09-10T17:11:56.437Z,16.40
2022-09-10T17:14:24.822Z,15.70
2022-09-10T17:16:53.227Z,16.30
2022-09-10T17:19:26.441Z,17.00
2022-09-10T17:21:56.972Z,16.00
2022-09-10T17:24:28.001Z,16.30
2022-09-10T17:26:56.373Z,15.70
2022-09-10T17:29:26.402Z,15.60
2022-09-10T17:31:55.328Z,15.80
2022-09-10T17:34:24.460Z,16.30
2022-09-10T17:36:54.156Z,16.80
2022-09-10T17:39:22.305Z,16.60
2022-09-10T17:41:55.201Z,15.70
2022-09-10T17:44:24.328Z,15.80
2022-09-10T17:51:49.254Z,15.90
2022-09-10T17:54:18.229Z,15.70
2022-09-10T17:56:46.366Z,16.70
2022-09-10T17:59:15.736Z,15.80
2022-09-10T18:01:44.140Z,16.20
2022-09-10T18:04:14.385Z,15.90
2022-09-10T18:06:43.746Z,15.40
2022-09-10T18:09:12.344Z,16.70
2022-09-10T18:11:42.273Z,15.10
2022-09-10T18:14:18.495Z,15.40
2022-09-10T18:16:47.192Z,15.10
2022-09-10T18:19:18.113Z,15.20
2022-09-10T18:21:48.068Z,15.80
2022-09-10T18:24:19.007Z,15.20
2022-09-10T18:26:49.074Z,15.50
2022-09-10T18:29:21.056Z,15.20
2022-09-10T18:31:52.153Z,15.80
2022-09-10T18:34:23.807Z,15.80
2022-09-10T18:36:54.623Z,15.30
2022-09-10T18:39:24.243Z,15.60
2022-09-10T18:41:53.103Z,16.60
2022-09-10T18:44:27.478Z,15.40
2022-09-10T18:46:56.153Z,15.00
2022-09-10T18:49:25.933Z,15.70
2022-09-10T18:51:56.007Z,15.70
2022-09-10T18:54:25.614Z,15.10
2022-09-10T18:56:53.990Z,15.00
2022-09-10T18:59:25.633Z,14.70
2022-09-10T19:01:55.810Z,15.30
2022-09-10T19:04:26.513Z,16.30
2022-09-10T19:06:55.451Z,14.70
2022-09-10T19:09:26.575Z,16.30
2022-09-10T19:11:56.717Z,14.90
2022-09-10T19:14:29.230Z,16.00
2022-09-10T19:17:00.279Z,15.50
2022-09-10T19:19:31.661Z,16.10
2022-09-10T19:22:03.302Z,14.90
2022-09-10T19:24:53.601Z,16.10
2022-09-10T19:27:20.887Z,15.20
2022-09-10T19:29:50.625Z,15.00
2022-09-10T19:32:20.420Z,16.70
2022-09-10T19:34:50.858Z,14.80
2022-09-10T19:37:19.496Z,14.90
2022-09-10T19:39:47.782Z,14.50
2022-09-10T19:42:16.364Z,16.10
2022-09-10T19:44:44.512Z,16.30
2022-09-10T19:47:13.888Z,15.30
2022-09-10T19:49:41.963Z,14.50
2022-09-10T19:52:11.016Z,14.90
2022-09-10T19:54:39.124Z,14.80
2022-09-10T19:59:35.684Z,16.30
2022-09-10T20:02:03.839Z,15.00
2022-09-10T20:04:33.886Z,15.50
2022-09-10T20:07:02.296Z,15.00
2022-09-10T20:09:30.319Z,14.80
2022-09-10T20:11:58.323Z,15.20
2022-09-10T20:16:54.857Z,14.70
2022-09-10T20:19:22.923Z,14.50
2022-09-10T20:21:52.388Z,15.10
2022-09-10T20:24:20.457Z,14.80
2022-09-10T20:26:49.196Z,14.90
2022-09-10T20:29:19.151Z,14.60
2022-09-10T20:31:48.439Z,15.10
2022-09-10T20:34:20.178Z,15.00
2022-09-10T20:36:51.105Z,14.50
2022-09-10T20:39:25.193Z,14.40
2022-09-10T20:41:53.630Z,14.70
2022-09-10T20:44:22.979Z,14.70
2022-09-10T20:46:51.214Z,16.00
2022-09-10T20:49:19.555Z,14.80
2022-09-10T20:51:48.283Z,15.60
2022-09-10T20:54:18.824Z,14.40
2022-09-10T20:56:48.489Z,14.40
2022-09-10T20:59:19.276Z,14.80
2022-09-10T21:01:50.593Z,15.10
2022-09-10T21:04:19.860Z,14.10
2022-09-10T21:09:16.642Z,14.40
2022-09-10T21:11:44.677Z,13.90
2022-09-10T21:14:14.398Z,15.70
2022-09-10T21:16:43.460Z,14.00
2022-09-10T21:19:14.511Z,14.00
2022-09-10T21:21:44.871Z,14.20
2022-09-10T21:24:15.158Z,13.90
2022-09-10T21:26:44.180Z,13.70
2022-09-10T21:29:16.183Z,14.60
2022-09-10T21:31:45.232Z,14.30
2022-09-10T21:34:14.967Z,14.80
2022-09-10T21:36:43.552Z,15.20
2022-09-10T21:39:15.610Z,13.60
2022-09-10T21:41:46.066Z,14.60
2022-09-10T21:44:18.462Z,13.90
2022-09-10T21:46:48.126Z,14.20
2022-09-10T21:49:16.611Z,14.60
2022-09-10T21:51:45.206Z,14.90
2022-09-10T21:54:18.541Z,13.70
2022-09-10T21:56:46.784Z,14.00
2022-09-10T21:59:16.538Z,13.60
2022-09-10T22:01:47.332Z,13.70
2022-09-10T22:04:22.105Z,14.40
2022-09-10T22:06:51.375Z,14.00
2022-09-10T22:09:19.851Z,14.60
2022-09-10T22:11:51.880Z,13.70
2022-09-10T22:14:23.602Z,14.50
2022-09-10T22:16:52.704Z,13.90
2022-09-10T22:19:23.933Z,14.40
2022-09-10T22:21:54.037Z,13.70
2022-09-10T22:24:22.367Z,14.00
2022-09-10T22:26:50.574Z,13.70
2022-09-10T22:29:21.514Z,14.60
2022-09-10T22:31:50.204Z,15.70
2022-09-10T22:34:21.066Z,15.40
2022-09-10T22:36:49.645Z,14.30
2022-09-10T22:39:19.831Z,13.80
2022-09-10T22:41:48.861Z,14.00
2022-09-10T22:44:19.187Z,14.00
2022-09-10T22:46:49.012Z,13.80
2022-09-10T22:49:17.956Z,15.10
2022-09-10T22:51:46.174Z,13.70
2022-09-10T22:54:14.836Z,14.40
2022-09-10T22:56:44.504Z,14.90
2022-09-10T22:59:14.776Z,14.50
2022-09-10T23:01:47.145Z,14.10
2022-09-10T23:04:16.996Z,14.10
2022-09-10T23:09:16.137Z,14.40
2022-09-10T23:11:45.096Z,14.80
2022-09-10T23:14:17.855Z,14.60
2022-09-10T23:16:48.993Z,13.80
2022-09-10T23:19:20.915Z,14.50
2022-09-10T23:21:51.445Z,13.50
2022-09-10T23:24:21.982Z,13.60
2022-09-10T23:26:50.206Z,14.00
2022-09-10T23:29:18.573Z,13.40
2022-09-10T23:31:47.579Z,14.00
2022-09-10T23:34:19.651Z,14.20
2022-09-10T23:36:49.861Z,13.80
2022-09-10T23:39:20.815Z,14.00
2022-09-10T23:41:49.635Z,13.40
2022-09-10T23:44:18.326Z,13.20
2022-09-10T23:46:46.480Z,14.10
2022-09-10T23:49:14.615Z,13.60
2022-09-10T23:51:44.128Z,14.70
2022-09-10T23:54:13.208Z,13.20
2022-09-10T23:56:42.206Z,13.80
2022-09-10T23:59:11.452Z,13.00
